PWSweather.com
Personal Weather Stations
Station Observations
ANTHEMNP
Anthem North Parkside, Anthem, AZ 85086

Anthem North ParksideAnthem, AZ 85086

Lat: 33.876464, Lon: -112.13861199999997

Elevation: 1930

Station Type: Davis Vantage Vue with Pro 2 console

http://www.azjerry.com/ANPW/wxindex.php

High Low Average
Temperature 105.3°F40.7°C 73.3°F22.9°C 93.7°F34.3°C
Dew Point 70.0°F21.1°C 55.0°F12.8°C 59.9°F15.5°C
Winds 9.9 mph 15.9 kmh Calm Calm 2.0 mph S3.2 kmh S
Wind Gusts 22.0 mph35.4 kmh -- 7.0 mph11.3 kmh
Humidity 86% 21% 35%
Pressure 29.99 in1015.6 mb 29.75 in1007.5 mb -
Precipitation 0.45 in11.4 mm - -
Hour Temp Dew Point Humidity Winds Wind Gusts Pressure Precip Precip Rate Daily Precip Total
12:00 AM 93.6°F34.2°C 56.0°F13.3°C 28% 1.4 mph SW2.3 kmh SW 4.0 mph6.4 kmh 29.75 in1007.5 mb 0.00 in0.0 mm 0.00 in0.0 mm 0.00 in0.0 mm
12:10 AM 93.1°F33.9°C 56.0°F13.3°C 29% 1.1 mph SSW1.8 kmh SSW 3.0 mph4.8 kmh 29.75 in1007.5 mb 0.00 in0.0 mm 0.00 in0.0 mm 0.00 in0.0 mm
12:20 AM 92.6°F33.7°C 57.0°F13.9°C 30% 0.7 mph SW1.1 kmh SW 3.0 mph4.8 kmh 29.75 in1007.5 mb 0.00 in0.0 mm 0.00 in0.0 mm 0.00 in0.0 mm
12:30 AM 92.2°F33.4°C 57.0°F13.9°C 31% 1.0 mph SE1.6 kmh SE 3.0 mph4.8 kmh 29.76 in1007.8 mb 0.00 in0.0 mm 0.00 in0.0 mm 0.00 in0.0 mm
12:40 AM 91.7°F33.2°C 58.0°F14.4°C 32% 0.5 mph S0.8 kmh S 3.0 mph4.8 kmh 29.76 in1007.8 mb 0.00 in0.0 mm 0.00 in0.0 mm 0.00 in0.0 mm
12:50 AM 91.6°F33.1°C 58.0°F14.4°C 32% 0.9 mph SW1.4 kmh SW 4.0 mph6.4 kmh 29.76 in1007.8 mb 0.00 in0.0 mm 0.00 in0.0 mm 0.00 in0.0 mm
01:00 AM 91.2°F32.9°C 58.0°F14.4°C 33% 0.3 mph SE0.5 kmh SE 2.0 mph3.2 kmh 29.76 in1007.8 mb 0.00 in0.0 mm 0.00 in0.0 mm 0.00 in0.0 mm
01:10 AM 90.8°F32.7°C 58.0°F14.4°C 33% 0.6 mph SE1.0 kmh SE 3.0 mph4.8 kmh 29.76 in1007.8 mb 0.00 in0.0 mm 0.00 in0.0 mm 0.00 in0.0 mm
01:20 AM 90.5°F32.5°C 59.0°F15.0°C 34% 0.5 mph SE0.8 kmh SE 3.0 mph4.8 kmh 29.76 in1007.8 mb 0.00 in0.0 mm 0.00 in0.0 mm 0.00 in0.0 mm
01:30 AM 90.0°F32.2°C 58.0°F14.4°C 34% Calm Calm 1.0 mph1.6 kmh 29.76 in1007.8 mb 0.00 in0.0 mm 0.00 in0.0 mm 0.00 in0.0 mm
01:40 AM 89.5°F31.9°C 58.0°F14.4°C 35% Calm Calm 1.0 mph1.6 kmh 29.76 in1007.8 mb 0.00 in0.0 mm 0.00 in0.0 mm 0.00 in0.0 mm
01:50 AM 89.0°F31.7°C 58.0°F14.4°C 35% Calm Calm 1.0 mph1.6 kmh 29.76 in1007.8 mb 0.00 in0.0 mm 0.00 in0.0 mm 0.00 in0.0 mm
02:00 AM 89.0°F31.7°C 58.0°F14.4°C 35% Calm Calm 1.0 mph1.6 kmh 29.76 in1007.8 mb 0.00 in0.0 mm 0.00 in0.0 mm 0.00 in0.0 mm
02:10 AM 88.5°F31.4°C 58.0°F14.4°C 35% 0.1 mph SE0.2 kmh SE 1.0 mph1.6 kmh 29.76 in1007.8 mb 0.00 in0.0 mm 0.00 in0.0 mm 0.00 in0.0 mm
02:20 AM 88.5°F31.4°C 58.0°F14.4°C 36% 1.0 mph SSE1.6 kmh SSE 2.0 mph3.2 kmh 29.76 in1007.8 mb 0.00 in0.0 mm 0.00 in0.0 mm 0.00 in0.0 mm
02:30 AM 88.6°F31.4°C 58.0°F14.4°C 35% 0.8 mph SSE1.3 kmh SSE 3.0 mph4.8 kmh 29.76 in1007.8 mb 0.00 in0.0 mm 0.00 in0.0 mm 0.00 in0.0 mm
02:40 AM 88.4°F31.3°C 58.0°F14.4°C 36% 0.5 mph SE0.8 kmh SE 2.0 mph3.2 kmh 29.76 in1007.8 mb 0.00 in0.0 mm 0.00 in0.0 mm 0.00 in0.0 mm
02:50 AM 88.2°F31.2°C 58.0°F14.4°C 36% 0.5 mph SE0.8 kmh SE 2.0 mph3.2 kmh 29.76 in1007.8 mb 0.00 in0.0 mm 0.00 in0.0 mm 0.00 in0.0 mm
03:00 AM 87.7°F30.9°C 58.0°F14.4°C 36% Calm Calm 1.0 mph1.6 kmh 29.76 in1007.8 mb 0.00 in0.0 mm 0.00 in0.0 mm 0.00 in0.0 mm
03:10 AM 86.9°F30.5°C 58.0°F14.4°C 37% Calm Calm -- 29.77 in1008.1 mb 0.00 in0.0 mm 0.00 in0.0 mm 0.00 in0.0 mm
03:20 AM 86.3°F30.2°C 57.0°F13.9°C 37% 0.3 mph N0.5 kmh N 1.0 mph1.6 kmh 29.77 in1008.1 mb 0.00 in0.0 mm 0.00 in0.0 mm 0.00 in0.0 mm
03:30 AM 86.4°F30.2°C 57.0°F13.9°C 37% 0.4 mph N0.6 kmh N 1.0 mph1.6 kmh 29.77 in1008.1 mb 0.00 in0.0 mm 0.00 in0.0 mm 0.00 in0.0 mm
03:40 AM 86.5°F30.3°C 57.0°F13.9°C 36% 0.5 mph N0.8 kmh N 2.0 mph3.2 kmh 29.77 in1008.1 mb 0.00 in0.0 mm 0.00 in0.0 mm 0.00 in0.0 mm
03:50 AM 86.4°F30.2°C 57.0°F13.9°C 37% 0.3 mph N0.5 kmh N 2.0 mph3.2 kmh 29.77 in1008.1 mb 0.00 in0.0 mm 0.00 in0.0 mm 0.00 in0.0 mm
04:00 AM 86.1°F30.1°C 57.0°F13.9°C 37% 0.9 mph NNE1.4 kmh NNE 2.0 mph3.2 kmh 29.78 in1008.5 mb 0.00 in0.0 mm 0.00 in0.0 mm 0.00 in0.0 mm
04:10 AM 85.6°F29.8°C 57.0°F13.9°C 37% Calm Calm 1.0 mph1.6 kmh 29.78 in1008.5 mb 0.00 in0.0 mm 0.00 in0.0 mm 0.00 in0.0 mm
04:20 AM 84.7°F29.3°C 56.0°F13.3°C 38% Calm Calm -- 29.78 in1008.5 mb 0.00 in0.0 mm 0.00 in0.0 mm 0.00 in0.0 mm
04:30 AM 84.9°F29.4°C 57.0°F13.9°C 38% Calm Calm -- 29.78 in1008.5 mb 0.00 in0.0 mm 0.00 in0.0 mm 0.00 in0.0 mm
04:40 AM 84.7°F29.3°C 56.0°F13.3°C 38% 0.2 mph NNE0.3 kmh NNE 2.0 mph3.2 kmh 29.79 in1008.8 mb 0.00 in0.0 mm 0.00 in0.0 mm 0.00 in0.0 mm
04:50 AM 83.9°F28.8°C 56.0°F13.3°C 39% 0.5 mph N0.8 kmh N 1.0 mph1.6 kmh 29.79 in1008.8 mb 0.00 in0.0 mm 0.00 in0.0 mm 0.00 in0.0 mm
05:00 AM 83.8°F28.8°C 56.0°F13.3°C 39% Calm Calm 1.0 mph1.6 kmh 29.80 in1009.1 mb 0.00 in0.0 mm 0.00 in0.0 mm 0.00 in0.0 mm
05:10 AM 83.6°F28.7°C 57.0°F13.9°C 40% 0.1 mph SE0.2 kmh SE 2.0 mph3.2 kmh 29.80 in1009.1 mb 0.00 in0.0 mm 0.00 in0.0 mm 0.00 in0.0 mm
05:20 AM 84.1°F28.9°C 58.0°F14.4°C 41% 0.4 mph SE0.6 kmh SE 2.0 mph3.2 kmh 29.81 in1009.5 mb 0.00 in0.0 mm 0.00 in0.0 mm 0.00 in0.0 mm
05:30 AM 85.1°F29.5°C 59.0°F15.0°C 41% 1.1 mph SSE1.8 kmh SSE 4.0 mph6.4 kmh 29.81 in1009.5 mb 0.00 in0.0 mm 0.00 in0.0 mm 0.00 in0.0 mm
05:40 AM 85.7°F29.8°C 59.0°F15.0°C 40% 1.3 mph SE2.1 kmh SE 4.0 mph6.4 kmh 29.81 in1009.5 mb 0.00 in0.0 mm 0.00 in0.0 mm 0.00 in0.0 mm
05:50 AM 85.7°F29.8°C 59.0°F15.0°C 40% 0.8 mph SE1.3 kmh SE 4.0 mph6.4 kmh 29.81 in1009.5 mb 0.00 in0.0 mm 0.00 in0.0 mm 0.00 in0.0 mm
06:00 AM 85.5°F29.7°C 59.0°F15.0°C 41% Calm Calm 1.0 mph1.6 kmh 29.82 in1009.8 mb 0.00 in0.0 mm 0.00 in0.0 mm 0.00 in0.0 mm
06:10 AM 85.1°F29.5°C 59.0°F15.0°C 41% Calm Calm -- 29.83 in1010.2 mb 0.00 in0.0 mm 0.00 in0.0 mm 0.00 in0.0 mm
06:20 AM 84.8°F29.3°C 59.0°F15.0°C 42% Calm Calm -- 29.83 in1010.2 mb 0.00 in0.0 mm 0.00 in0.0 mm 0.00 in0.0 mm
06:30 AM 84.5°F29.2°C 59.0°F15.0°C 42% Calm Calm -- 29.84 in1010.5 mb 0.00 in0.0 mm 0.00 in0.0 mm 0.00 in0.0 mm
06:40 AM 84.5°F29.2°C 58.0°F14.4°C 41% Calm Calm -- 29.84 in1010.5 mb 0.00 in0.0 mm 0.00 in0.0 mm 0.00 in0.0 mm
06:50 AM 84.7°F29.3°C 58.0°F14.4°C 41% Calm Calm -- 29.84 in1010.5 mb 0.00 in0.0 mm 0.00 in0.0 mm 0.00 in0.0 mm
07:00 AM 85.3°F29.6°C 59.0°F15.0°C 41% Calm Calm -- 29.85 in1010.8 mb 0.00 in0.0 mm 0.00 in0.0 mm 0.00 in0.0 mm
07:10 AM 86.1°F30.1°C 60.0°F15.6°C 42% 0.6 mph SE1.0 kmh SE 3.0 mph4.8 kmh 29.86 in1011.2 mb 0.00 in0.0 mm 0.00 in0.0 mm 0.00 in0.0 mm
07:20 AM 86.8°F30.4°C 60.0°F15.6°C 41% 1.4 mph SSE2.3 kmh SSE 4.0 mph6.4 kmh 29.86 in1011.2 mb 0.00 in0.0 mm 0.00 in0.0 mm 0.00 in0.0 mm
07:30 AM 87.4°F30.8°C 60.0°F15.6°C 40% 2.3 mph S3.7 kmh S 6.0 mph9.7 kmh 29.86 in1011.2 mb 0.00 in0.0 mm 0.00 in0.0 mm 0.00 in0.0 mm
07:40 AM 88.5°F31.4°C 61.0°F16.1°C 39% 1.8 mph SSE2.9 kmh SSE 5.0 mph8.0 kmh 29.87 in1011.5 mb 0.00 in0.0 mm 0.00 in0.0 mm 0.00 in0.0 mm
07:50 AM 90.6°F32.6°C 60.0°F15.6°C 36% 1.1 mph ESE1.8 kmh ESE 3.0 mph4.8 kmh 29.87 in1011.5 mb 0.00 in0.0 mm 0.00 in0.0 mm 0.00 in0.0 mm
08:00 AM 92.1°F33.4°C 61.0°F16.1°C 35% 1.1 mph SE1.8 kmh SE 5.0 mph8.0 kmh 29.87 in1011.5 mb 0.00 in0.0 mm 0.00 in0.0 mm 0.00 in0.0 mm
08:10 AM 93.4°F34.1°C 60.0°F15.6°C 33% 1.5 mph SSE2.4 kmh SSE 4.0 mph6.4 kmh 29.88 in1011.9 mb 0.00 in0.0 mm 0.00 in0.0 mm 0.00 in0.0 mm
08:20 AM 94.4°F34.7°C 60.0°F15.6°C 32% 1.4 mph SW2.3 kmh SW 4.0 mph6.4 kmh 29.88 in1011.9 mb 0.00 in0.0 mm 0.00 in0.0 mm 0.00 in0.0 mm
08:30 AM 94.8°F34.9°C 60.0°F15.6°C 31% 2.0 mph SW3.2 kmh SW 7.0 mph11.3 kmh 29.88 in1011.9 mb 0.00 in0.0 mm 0.00 in0.0 mm 0.00 in0.0 mm
08:40 AM 94.7°F34.8°C 60.0°F15.6°C 31% 2.4 mph SSE3.9 kmh SSE 5.0 mph8.0 kmh 29.89 in1012.2 mb 0.00 in0.0 mm 0.00 in0.0 mm 0.00 in0.0 mm
08:50 AM 95.6°F35.3°C 60.0°F15.6°C 30% 1.5 mph SW2.4 kmh SW 3.0 mph4.8 kmh 29.89 in1012.2 mb 0.00 in0.0 mm 0.00 in0.0 mm 0.00 in0.0 mm
09:00 AM 95.9°F35.5°C 60.0°F15.6°C 30% 1.3 mph SW2.1 kmh SW 4.0 mph6.4 kmh 29.89 in1012.2 mb 0.00 in0.0 mm 0.00 in0.0 mm 0.00 in0.0 mm
09:10 AM 95.9°F35.5°C 60.0°F15.6°C 30% 2.4 mph SSW3.9 kmh SSW 6.0 mph9.7 kmh 29.89 in1012.2 mb 0.00 in0.0 mm 0.00 in0.0 mm 0.00 in0.0 mm
09:20 AM 96.5°F35.8°C 59.0°F15.0°C 29% 1.5 mph SE2.4 kmh SE 4.0 mph6.4 kmh 29.89 in1012.2 mb 0.00 in0.0 mm 0.00 in0.0 mm 0.00 in0.0 mm
09:30 AM 97.3°F36.3°C 60.0°F15.6°C 29% 1.7 mph SE2.7 kmh SE 7.0 mph11.3 kmh 29.90 in1012.5 mb 0.00 in0.0 mm 0.00 in0.0 mm 0.00 in0.0 mm
09:40 AM 97.7°F36.5°C 58.0°F14.4°C 27% 2.0 mph SE3.2 kmh SE 7.0 mph11.3 kmh 29.91 in1012.9 mb 0.00 in0.0 mm 0.00 in0.0 mm 0.00 in0.0 mm
09:50 AM 97.5°F36.4°C 58.0°F14.4°C 27% 2.8 mph SW4.5 kmh SW 6.0 mph9.7 kmh 29.91 in1012.9 mb 0.00 in0.0 mm 0.00 in0.0 mm 0.00 in0.0 mm
10:00 AM 98.0°F36.7°C 59.0°F15.0°C 27% 2.3 mph SW3.7 kmh SW 6.0 mph9.7 kmh 29.91 in1012.9 mb 0.00 in0.0 mm 0.00 in0.0 mm 0.00 in0.0 mm
10:10 AM 98.3°F36.8°C 59.0°F15.0°C 27% 2.4 mph SW3.9 kmh SW 7.0 mph11.3 kmh 29.91 in1012.9 mb 0.00 in0.0 mm 0.00 in0.0 mm 0.00 in0.0 mm
10:20 AM 100.0°F37.8°C 59.0°F15.0°C 26% 0.4 mph SE0.6 kmh SE 3.0 mph4.8 kmh 29.91 in1012.9 mb 0.00 in0.0 mm 0.00 in0.0 mm 0.00 in0.0 mm
10:30 AM 99.8°F37.7°C 58.0°F14.4°C 25% 1.7 mph SE2.7 kmh SE 6.0 mph9.7 kmh 29.91 in1012.9 mb 0.00 in0.0 mm 0.00 in0.0 mm 0.00 in0.0 mm
10:40 AM 99.7°F37.6°C 58.0°F14.4°C 25% 3.0 mph SSW4.8 kmh SSW 7.0 mph11.3 kmh 29.91 in1012.9 mb 0.00 in0.0 mm 0.00 in0.0 mm 0.00 in0.0 mm
10:50 AM 99.5°F37.5°C 58.0°F14.4°C 25% 4.2 mph SW6.8 kmh SW 11.0 mph17.7 kmh 29.92 in1013.2 mb 0.00 in0.0 mm 0.00 in0.0 mm 0.00 in0.0 mm
11:00 AM 100.5°F38.1°C 59.0°F15.0°C 25% 2.5 mph SW4.0 kmh SW 7.0 mph11.3 kmh 29.91 in1012.9 mb 0.00 in0.0 mm 0.00 in0.0 mm 0.00 in0.0 mm
11:10 AM 100.7°F38.2°C 58.0°F14.4°C 24% 2.6 mph S4.2 kmh S 6.0 mph9.7 kmh 29.91 in1012.9 mb 0.00 in0.0 mm 0.00 in0.0 mm 0.00 in0.0 mm
11:20 AM 100.5°F38.1°C 58.0°F14.4°C 24% 4.2 mph SSE6.8 kmh SSE 9.0 mph14.5 kmh 29.91 in1012.9 mb 0.00 in0.0 mm 0.00 in0.0 mm 0.00 in0.0 mm
11:30 AM 100.9°F38.3°C 57.0°F13.9°C 23% 4.3 mph S6.9 kmh S 10.0 mph16.1 kmh 29.91 in1012.9 mb 0.00 in0.0 mm 0.00 in0.0 mm 0.00 in0.0 mm
11:40 AM 101.3°F38.5°C 57.0°F13.9°C 23% 2.3 mph S3.7 kmh S 6.0 mph9.7 kmh 29.91 in1012.9 mb 0.00 in0.0 mm 0.00 in0.0 mm 0.00 in0.0 mm
11:50 AM 102.0°F38.9°C 58.0°F14.4°C 23% 2.5 mph S4.0 kmh S 9.0 mph14.5 kmh 29.90 in1012.5 mb 0.00 in0.0 mm 0.00 in0.0 mm 0.00 in0.0 mm
12:00 PM 102.0°F38.9°C 58.0°F14.4°C 23% 3.1 mph N5.0 kmh N 11.0 mph17.7 kmh 29.90 in1012.5 mb 0.00 in0.0 mm 0.00 in0.0 mm 0.00 in0.0 mm
12:10 PM 101.9°F38.8°C 58.0°F14.4°C 23% 3.7 mph WSW6.0 kmh WSW 8.0 mph12.9 kmh 29.89 in1012.2 mb 0.00 in0.0 mm 0.00 in0.0 mm 0.00 in0.0 mm
12:20 PM 101.7°F38.7°C 58.0°F14.4°C 23% 4.5 mph S7.2 kmh S 12.0 mph19.3 kmh 29.89 in1012.2 mb 0.00 in0.0 mm 0.00 in0.0 mm 0.00 in0.0 mm
12:30 PM 102.5°F39.2°C 58.0°F14.4°C 23% 3.3 mph SE5.3 kmh SE 9.0 mph14.5 kmh 29.88 in1011.9 mb 0.00 in0.0 mm 0.00 in0.0 mm 0.00 in0.0 mm
12:40 PM 103.2°F39.6°C 58.0°F14.4°C 22% 1.7 mph WNW2.7 kmh WNW 6.0 mph9.7 kmh 29.88 in1011.9 mb 0.00 in0.0 mm 0.00 in0.0 mm 0.00 in0.0 mm
12:50 PM 102.5°F39.2°C 58.0°F14.4°C 23% 4.1 mph SSE6.6 kmh SSE 11.0 mph17.7 kmh 29.87 in1011.5 mb 0.00 in0.0 mm 0.00 in0.0 mm 0.00 in0.0 mm
01:00 PM 103.7°F39.8°C 58.0°F14.4°C 22% 3.8 mph NW6.1 kmh NW 11.0 mph17.7 kmh 29.87 in1011.5 mb 0.00 in0.0 mm 0.00 in0.0 mm 0.00 in0.0 mm
01:10 PM 104.1°F40.1°C 58.0°F14.4°C 22% 3.5 mph S5.6 kmh S 9.0 mph14.5 kmh 29.86 in1011.2 mb 0.00 in0.0 mm 0.00 in0.0 mm 0.00 in0.0 mm
01:20 PM 103.8°F39.9°C 58.0°F14.4°C 22% 4.6 mph SW7.4 kmh SW 15.0 mph24.1 kmh 29.85 in1010.8 mb 0.00 in0.0 mm 0.00 in0.0 mm 0.00 in0.0 mm
01:30 PM 103.5°F39.7°C 58.0°F14.4°C 22% 4.1 mph ESE6.6 kmh ESE 12.0 mph19.3 kmh 29.85 in1010.8 mb 0.00 in0.0 mm 0.00 in0.0 mm 0.00 in0.0 mm
01:40 PM 104.2°F40.1°C 57.0°F13.9°C 21% 3.3 mph SW5.3 kmh SW 11.0 mph17.7 kmh 29.84 in1010.5 mb 0.00 in0.0 mm 0.00 in0.0 mm 0.00 in0.0 mm
01:50 PM 105.0°F40.6°C 59.0°F15.0°C 22% 4.2 mph SSE6.8 kmh SSE 10.0 mph16.1 kmh 29.84 in1010.5 mb 0.00 in0.0 mm 0.00 in0.0 mm 0.00 in0.0 mm
02:00 PM 104.8°F40.4°C 59.0°F15.0°C 22% 3.3 mph SW5.3 kmh SW 12.0 mph19.3 kmh 29.83 in1010.2 mb 0.00 in0.0 mm 0.00 in0.0 mm 0.00 in0.0 mm
02:10 PM 104.1°F40.1°C 60.0°F15.6°C 23% 3.6 mph WNW5.8 kmh WNW 8.0 mph12.9 kmh 29.83 in1010.2 mb 0.00 in0.0 mm 0.00 in0.0 mm 0.00 in0.0 mm
02:20 PM 104.2°F40.1°C 60.0°F15.6°C 23% 3.6 mph SSW5.8 kmh SSW 14.0 mph22.5 kmh 29.82 in1009.8 mb 0.00 in0.0 mm 0.00 in0.0 mm 0.00 in0.0 mm
02:30 PM 103.9°F39.9°C 59.0°F15.0°C 23% 4.7 mph WNW7.6 kmh WNW 11.0 mph17.7 kmh 29.81 in1009.5 mb 0.00 in0.0 mm 0.00 in0.0 mm 0.00 in0.0 mm
02:40 PM 104.7°F40.4°C 60.0°F15.6°C 23% 3.2 mph W5.1 kmh W 7.0 mph11.3 kmh 29.81 in1009.5 mb 0.00 in0.0 mm 0.00 in0.0 mm 0.00 in0.0 mm
02:50 PM 105.3°F40.7°C 59.0°F15.0°C 22% 2.9 mph E4.7 kmh E 10.0 mph16.1 kmh 29.80 in1009.1 mb 0.00 in0.0 mm 0.00 in0.0 mm 0.00 in0.0 mm
03:00 PM 104.7°F40.4°C 60.0°F15.6°C 23% 3.4 mph NW5.5 kmh NW 6.0 mph9.7 kmh 29.80 in1009.1 mb 0.00 in0.0 mm 0.00 in0.0 mm 0.00 in0.0 mm
03:10 PM 105.3°F40.7°C 59.0°F15.0°C 22% 3.3 mph WSW5.3 kmh WSW 9.0 mph14.5 kmh 29.80 in1009.1 mb 0.00 in0.0 mm 0.00 in0.0 mm 0.00 in0.0 mm
03:20 PM 104.8°F40.4°C 59.0°F15.0°C 22% 2.9 mph NW4.7 kmh NW 7.0 mph11.3 kmh 29.79 in1008.8 mb 0.00 in0.0 mm 0.00 in0.0 mm 0.00 in0.0 mm
03:30 PM 104.6°F40.3°C 60.0°F15.6°C 23% 3.7 mph SW6.0 kmh SW 9.0 mph14.5 kmh 29.79 in1008.8 mb 0.00 in0.0 mm 0.00 in0.0 mm 0.00 in0.0 mm
03:40 PM 104.5°F40.3°C 60.0°F15.6°C 23% 5.6 mph SE9.0 kmh SE 13.0 mph20.9 kmh 29.79 in1008.8 mb 0.00 in0.0 mm 0.00 in0.0 mm 0.00 in0.0 mm
03:50 PM 104.2°F40.1°C 60.0°F15.6°C 23% 2.5 mph SSW4.0 kmh SSW 6.0 mph9.7 kmh 29.78 in1008.5 mb 0.00 in0.0 mm 0.00 in0.0 mm 0.00 in0.0 mm
04:00 PM 104.1°F40.1°C 60.0°F15.6°C 23% 3.5 mph SW5.6 kmh SW 11.0 mph17.7 kmh 29.77 in1008.1 mb 0.00 in0.0 mm 0.00 in0.0 mm 0.00 in0.0 mm
04:10 PM 104.0°F40.0°C 61.0°F16.1°C 24% 4.6 mph WSW7.4 kmh WSW 14.0 mph22.5 kmh 29.77 in1008.1 mb 0.00 in0.0 mm 0.00 in0.0 mm 0.00 in0.0 mm
04:20 PM 104.3°F40.2°C 60.0°F15.6°C 23% 4.6 mph W7.4 kmh W 12.0 mph19.3 kmh 29.76 in1007.8 mb 0.00 in0.0 mm 0.00 in0.0 mm 0.00 in0.0 mm
04:30 PM 104.1°F40.1°C 60.0°F15.6°C 23% 5.3 mph SE8.5 kmh SE 16.0 mph25.7 kmh 29.76 in1007.8 mb 0.00 in0.0 mm 0.00 in0.0 mm 0.00 in0.0 mm
04:40 PM 103.6°F39.8°C 60.0°F15.6°C 24% 4.2 mph SSE6.8 kmh SSE 12.0 mph19.3 kmh 29.76 in1007.8 mb 0.00 in0.0 mm 0.00 in0.0 mm 0.00 in0.0 mm
04:50 PM 103.6°F39.8°C 60.0°F15.6°C 24% 3.8 mph E6.1 kmh E 14.0 mph22.5 kmh 29.76 in1007.8 mb 0.00 in0.0 mm 0.00 in0.0 mm 0.00 in0.0 mm
05:00 PM 103.3°F39.6°C 60.0°F15.6°C 24% 3.2 mph NW5.1 kmh NW 9.0 mph14.5 kmh 29.76 in1007.8 mb 0.00 in0.0 mm 0.00 in0.0 mm 0.00 in0.0 mm
05:10 PM 103.5°F39.7°C 60.0°F15.6°C 24% 3.1 mph S5.0 kmh S 9.0 mph14.5 kmh 29.76 in1007.8 mb 0.00 in0.0 mm 0.00 in0.0 mm 0.00 in0.0 mm
05:20 PM 103.3°F39.6°C 60.0°F15.6°C 24% 3.7 mph SSW6.0 kmh SSW 10.0 mph16.1 kmh 29.76 in1007.8 mb 0.00 in0.0 mm 0.00 in0.0 mm 0.00 in0.0 mm
05:30 PM 103.3°F39.6°C 60.0°F15.6°C 24% 3.5 mph SE5.6 kmh SE 13.0 mph20.9 kmh 29.76 in1007.8 mb 0.00 in0.0 mm 0.00 in0.0 mm 0.00 in0.0 mm
05:40 PM 103.4°F39.7°C 60.0°F15.6°C 24% 2.8 mph S4.5 kmh S 9.0 mph14.5 kmh 29.76 in1007.8 mb 0.00 in0.0 mm 0.00 in0.0 mm 0.00 in0.0 mm
05:50 PM 103.1°F39.5°C 60.0°F15.6°C 24% 2.6 mph NNE4.2 kmh NNE 8.0 mph12.9 kmh 29.76 in1007.8 mb 0.00 in0.0 mm 0.00 in0.0 mm 0.00 in0.0 mm
06:00 PM 102.5°F39.2°C 61.0°F16.1°C 25% 3.9 mph S6.3 kmh S 10.0 mph16.1 kmh 29.76 in1007.8 mb 0.00 in0.0 mm 0.00 in0.0 mm 0.00 in0.0 mm
06:10 PM 102.0°F38.9°C 60.0°F15.6°C 25% 4.4 mph SW7.1 kmh SW 10.0 mph16.1 kmh 29.76 in1007.8 mb 0.00 in0.0 mm 0.00 in0.0 mm 0.00 in0.0 mm
06:20 PM 101.9°F38.8°C 60.0°F15.6°C 25% 4.7 mph SSE7.6 kmh SSE 10.0 mph16.1 kmh 29.76 in1007.8 mb 0.00 in0.0 mm 0.00 in0.0 mm 0.00 in0.0 mm
06:30 PM 101.3°F38.5°C 61.0°F16.1°C 26% 5.5 mph S8.9 kmh S 14.0 mph22.5 kmh 29.76 in1007.8 mb 0.00 in0.0 mm 0.00 in0.0 mm 0.00 in0.0 mm
06:40 PM 100.9°F38.3°C 60.0°F15.6°C 26% 4.9 mph SW7.9 kmh SW 9.0 mph14.5 kmh 29.76 in1007.8 mb 0.00 in0.0 mm 0.00 in0.0 mm 0.00 in0.0 mm
06:50 PM 100.7°F38.2°C 60.0°F15.6°C 26% 5.6 mph SSW9.0 kmh SSW 12.0 mph19.3 kmh 29.77 in1008.1 mb 0.00 in0.0 mm 0.00 in0.0 mm 0.00 in0.0 mm
07:00 PM 100.4°F38.0°C 61.0°F16.1°C 27% 3.9 mph SW6.3 kmh SW 10.0 mph16.1 kmh 29.77 in1008.1 mb 0.00 in0.0 mm 0.00 in0.0 mm 0.00 in0.0 mm
07:10 PM 100.1°F37.8°C 61.0°F16.1°C 27% 4.0 mph SW6.4 kmh SW 7.0 mph11.3 kmh 29.78 in1008.5 mb 0.00 in0.0 mm 0.00 in0.0 mm 0.00 in0.0 mm
07:20 PM 99.9°F37.7°C 61.0°F16.1°C 28% 3.6 mph SSW5.8 kmh SSW 9.0 mph14.5 kmh 29.79 in1008.8 mb 0.00 in0.0 mm 0.00 in0.0 mm 0.00 in0.0 mm
07:30 PM 99.5°F37.5°C 61.0°F16.1°C 28% 4.8 mph SW7.7 kmh SW 8.0 mph12.9 kmh 29.80 in1009.1 mb 0.00 in0.0 mm 0.00 in0.0 mm 0.00 in0.0 mm
07:40 PM 99.3°F37.4°C 61.0°F16.1°C 28% 4.2 mph SSW6.8 kmh SSW 9.0 mph14.5 kmh 29.79 in1008.8 mb 0.00 in0.0 mm 0.00 in0.0 mm 0.00 in0.0 mm
07:50 PM 99.1°F37.3°C 62.0°F16.7°C 29% 3.5 mph SW5.6 kmh SW 6.0 mph9.7 kmh 29.79 in1008.8 mb 0.00 in0.0 mm 0.00 in0.0 mm 0.00 in0.0 mm
08:00 PM 98.8°F37.1°C 61.0°F16.1°C 29% 3.4 mph SSW5.5 kmh SSW 7.0 mph11.3 kmh 29.80 in1009.1 mb 0.00 in0.0 mm 0.00 in0.0 mm 0.00 in0.0 mm
08:10 PM 98.6°F37.0°C 61.0°F16.1°C 29% 2.6 mph S4.2 kmh S 6.0 mph9.7 kmh 29.80 in1009.1 mb 0.00 in0.0 mm 0.00 in0.0 mm 0.00 in0.0 mm
08:20 PM 98.2°F36.8°C 61.0°F16.1°C 29% 2.3 mph SW3.7 kmh SW 8.0 mph12.9 kmh 29.80 in1009.1 mb 0.00 in0.0 mm 0.00 in0.0 mm 0.00 in0.0 mm
08:30 PM 98.1°F36.7°C 61.0°F16.1°C 29% 2.2 mph S3.5 kmh S 6.0 mph9.7 kmh 29.81 in1009.5 mb 0.00 in0.0 mm 0.00 in0.0 mm 0.00 in0.0 mm
08:40 PM 97.8°F36.6°C 62.0°F16.7°C 30% 1.7 mph SW2.7 kmh SW 4.0 mph6.4 kmh 29.82 in1009.8 mb 0.00 in0.0 mm 0.00 in0.0 mm 0.00 in0.0 mm
08:50 PM 97.6°F36.4°C 61.0°F16.1°C 30% 1.1 mph SE1.8 kmh SE 5.0 mph8.0 kmh 29.84 in1010.5 mb 0.00 in0.0 mm 0.00 in0.0 mm 0.00 in0.0 mm
09:00 PM 96.6°F35.9°C 55.0°F12.8°C 25% 3.9 mph NE6.3 kmh NE 10.0 mph16.1 kmh 29.85 in1010.8 mb 0.00 in0.0 mm 0.00 in0.0 mm 0.00 in0.0 mm
09:10 PM 93.7°F34.3°C 59.0°F15.0°C 31% 7.3 mph NE11.7 kmh NE 20.0 mph32.2 kmh 29.87 in1011.5 mb 0.00 in0.0 mm 0.00 in0.0 mm 0.00 in0.0 mm
09:20 PM 90.3°F32.4°C 61.0°F16.1°C 37% 9.9 mph NE15.9 kmh NE 22.0 mph35.4 kmh 29.89 in1012.2 mb 0.00 in0.0 mm 0.00 in0.0 mm 0.00 in0.0 mm
09:30 PM 85.9°F29.9°C 63.0°F17.2°C 46% 8.8 mph N14.2 kmh N 21.0 mph33.8 kmh 29.90 in1012.5 mb 0.00 in0.0 mm 0.00 in0.0 mm 0.00 in0.0 mm
09:40 PM 79.7°F26.5°C 68.0°F20.0°C 67% 6.4 mph NE10.3 kmh NE 14.0 mph22.5 kmh 29.93 in1013.5 mb 0.38 in9.7 mm 2.28 in57.9 mm 0.06 in1.5 mm
09:50 PM 77.2°F25.1°C 68.0°F20.0°C 72% 6.0 mph SE9.7 kmh SE 14.0 mph22.5 kmh 29.96 in1014.6 mb 0.08 in2.0 mm 0.00 in0.0 mm 0.08 in2.0 mm
10:00 PM 76.1°F24.5°C 68.0°F20.0°C 75% 7.0 mph SE11.3 kmh SE 22.0 mph35.4 kmh 29.96 in1014.6 mb 1.42 in36.1 mm 1.61 in40.9 mm 0.20 in5.1 mm
10:10 PM 75.1°F23.9°C 68.0°F20.0°C 78% 5.5 mph SE8.9 kmh SE 20.0 mph32.2 kmh 29.98 in1015.2 mb 0.17 in4.3 mm 0.00 in0.0 mm 0.27 in6.9 mm
10:20 PM 73.8°F23.2°C 68.0°F20.0°C 81% 3.9 mph SE6.3 kmh SE 9.0 mph14.5 kmh 29.97 in1014.9 mb 0.44 in11.2 mm 1.62 in41.1 mm 0.43 in10.9 mm
10:30 PM 73.3°F22.9°C 68.0°F20.0°C 83% 2.6 mph SW4.2 kmh SW 7.0 mph11.3 kmh 29.98 in1015.2 mb 0.09 in2.3 mm 0.00 in0.0 mm 0.45 in11.4 mm
10:40 PM 73.4°F23.0°C 68.0°F20.0°C 82% 1.0 mph SE1.6 kmh SE 4.0 mph6.4 kmh 29.98 in1015.2 mb 0.04 in1.0 mm 0.00 in0.0 mm 0.45 in11.4 mm
10:50 PM 73.6°F23.1°C 68.0°F20.0°C 83% 0.3 mph ESE0.5 kmh ESE 2.0 mph3.2 kmh 29.98 in1015.2 mb 0.00 in0.0 mm 0.00 in0.0 mm 0.45 in11.4 mm
11:00 PM 73.8°F23.2°C 68.0°F20.0°C 83% 0.5 mph SW0.8 kmh SW 4.0 mph6.4 kmh 29.99 in1015.6 mb 0.00 in0.0 mm 0.00 in0.0 mm 0.45 in11.4 mm
11:10 PM 74.1°F23.4°C 68.0°F20.0°C 81% 1.2 mph S1.9 kmh S 4.0 mph6.4 kmh 29.97 in1014.9 mb 0.00 in0.0 mm 0.00 in0.0 mm 0.45 in11.4 mm
11:20 PM 74.1°F23.4°C 68.0°F20.0°C 80% 0.2 mph SW0.3 kmh SW 2.0 mph3.2 kmh 29.97 in1014.9 mb 0.00 in0.0 mm 0.00 in0.0 mm 0.45 in11.4 mm
11:30 PM 74.1°F23.4°C 69.0°F20.6°C 84% Calm Calm 1.0 mph1.6 kmh 29.98 in1015.2 mb 0.00 in0.0 mm 0.00 in0.0 mm 0.45 in11.4 mm
11:40 PM 74.1°F23.4°C 70.0°F21.1°C 86% 0.6 mph NNE1.0 kmh NNE 3.0 mph4.8 kmh 29.98 in1015.2 mb 0.00 in0.0 mm 0.00 in0.0 mm 0.45 in11.4 mm
11:50 PM 74.3°F23.5°C 70.0°F21.1°C 85% 1.5 mph NNW2.4 kmh NNW 4.0 mph6.4 kmh 29.98 in1015.2 mb 0.00 in0.0 mm 0.00 in0.0 mm 0.45 in11.4 mm